Time;durP1;ratioP1;P1;durP2;ratioP2;P2;SDS_P1;SDS_P2;PMS_P1;PMS_P2;Temp;Humidity;BMP_temperature;BMP_pressure;BME280_temperature;BME280_humidity;BME280_pressure;Samples;Min_cycle;Max_cycle;Signal;HPM_P1;HPM_P2
2021/04/26 00:01:21;;;;;;;3.70;2.70;;;;;;;;;;5101291;28;20288;-67
2021/04/26 00:03:49;;;;;;;2.17;1.97;;;;;;;;;;5100943;28;20248;-66
2021/04/26 00:06:17;;;;;;;3.50;3.20;;;;;;;;;;5101087;28;20240;-66
2021/04/26 00:08:44;;;;;;;3.67;2.30;;;;;;;;;;5100453;28;20297;-66
2021/04/26 00:11:11;;;;;;;5.40;2.30;;;;;;;;;;5100365;28;20205;-66
2021/04/26 00:13:38;;;;;;;4.73;2.23;;;;;;;;;;5101114;28;20749;-66
2021/04/26 00:16:05;;;;;;;4.37;2.73;;;;;;;;;;5101165;28;20228;-67
2021/04/26 00:18:32;;;;;;;2.90;2.60;;;;;;;;;;5100960;28;20244;-67
2021/04/26 00:20:59;;;;;;;3.67;2.20;;;;;;;;;;5100878;28;20248;-67
2021/04/26 00:23:27;;;;;;;3.20;2.90;;;;;;;;;;5100346;28;20292;-66
2021/04/26 00:25:54;;;;;;;3.17;2.20;;;;;;;;;;5100737;28;20232;-66
2021/04/26 00:28:21;;;;;;;5.20;2.30;;;;;;;;;;5100590;28;20211;-67
2021/04/26 00:30:48;;;;;;;3.30;2.20;;;;;;;;;;5100800;28;20292;-67
2021/04/26 00:33:15;;;;;;;3.20;1.80;;;;;;;;;;5100547;28;20221;-67
2021/04/26 00:35:42;;;;;;;2.80;2.20;;;;;;;;;;5100363;28;20670;-66
2021/04/26 00:38:09;;;;;;;2.57;1.80;;;;;;;;;;5100448;28;20205;-66
2021/04/26 00:40:37;;;;;;;2.73;2.10;;;;;;;;;;5100476;28;20288;-67
2021/04/26 00:43:04;;;;;;;2.20;2.00;;;;;;;;;;5100342;28;20209;-67
2021/04/26 00:45:32;;;;;;;3.07;1.70;;;;;;;;;;5099998;28;20350;-67
2021/04/26 00:48:00;;;;;;;2.53;2.10;;;;;;;;;;5100145;28;20720;-66
2021/04/26 00:50:28;;;;;;;2.10;1.90;;;;;;;;;;5100705;28;20605;-67
2021/04/26 00:52:56;;;;;;;4.70;2.30;;;;;;;;;;5100108;28;20660;-66
2021/04/26 00:55:24;;;;;;;5.13;2.20;;;;;;;;;;5100018;28;20261;-67
2021/04/26 00:57:52;;;;;;;4.70;2.33;;;;;;;;;;5099398;28;20210;-67
2021/04/26 01:00:20;;;;;;;2.33;1.90;;;;;;;;;;5099832;28;20729;-67
2021/04/26 01:02:47;;;;;;;3.30;2.27;;;;;;;;;;5100123;28;20284;-67
2021/04/26 01:05:16;;;;;;;2.10;1.90;;;;;;;;;;5099886;28;20233;-67
2021/04/26 01:07:43;;;;;;;1.90;1.80;;;;;;;;;;5099713;28;20214;-67
2021/04/26 01:10:11;;;;;;;4.03;1.60;;;;;;;;;;5099039;28;20293;-67
2021/04/26 01:12:44;;;;;;;4.43;2.10;;;;;;;;;;5099784;28;20714;-67
2021/04/26 01:15:18;;;;;;;2.50;2.07;;;;;;;;;;5099720;28;20257;-66
2021/04/26 01:17:47;;;;;;;4.10;2.10;;;;;;;;;;5099573;28;20292;-67
2021/04/26 01:20:46;;;;;;;2.10;1.90;;;;;;;;;;5099620;28;20289;-67
2021/04/26 01:23:31;;;;;;;2.10;1.90;;;;;;;;;;5099163;28;20567;-66
2021/04/26 01:25:59;;;;;;;4.40;1.70;;;;;;;;;;5099777;28;20226;-67
2021/04/26 01:28:33;;;;;;;1.90;1.70;;;;;;;;;;5099607;28;20288;-67
2021/04/26 01:31:07;;;;;;;2.83;2.00;;;;;;;;;;5099726;28;20232;-67
2021/04/26 01:33:38;;;;;;;1.90;1.80;;;;;;;;;;5099512;28;20255;-67
2021/04/26 01:36:07;;;;;;;4.87;2.23;;;;;;;;;;5099335;28;20293;-67
2021/04/26 01:38:36;;;;;;;4.20;1.80;;;;;;;;;;5098846;28;20231;-67
2021/04/26 01:41:03;;;;;;;5.23;2.07;;;;;;;;;;5096618;28;20233;-66
2021/04/26 01:43:31;;;;;;;1.77;1.67;;;;;;;;;;5098352;28;20225;-66
2021/04/26 01:45:59;;;;;;;2.83;1.53;;;;;;;;;;5098614;28;20230;-66
2021/04/26 01:48:28;;;;;;;2.43;1.67;;;;;;;;;;5098997;28;20205;-66
2021/04/26 01:50:56;;;;;;;5.30;2.00;;;;;;;;;;5098719;28;20205;-66
2021/04/26 01:53:24;;;;;;;2.50;1.93;;;;;;;;;;5098546;28;20229;-66
2021/04/26 01:55:55;;;;;;;3.90;2.13;;;;;;;;;;5098789;28;20763;-66
2021/04/26 01:58:22;;;;;;;4.20;2.33;;;;;;;;;;5098719;28;20263;-66
2021/04/26 02:00:49;;;;;;;2.00;1.90;;;;;;;;;;5098933;28;20197;-64
2021/04/26 02:03:19;;;;;;;5.13;1.90;;;;;;;;;;5098869;28;20220;-66
2021/04/26 02:05:47;;;;;;;2.00;1.80;;;;;;;;;;5099247;28;20253;-66
2021/04/26 02:08:15;;;;;;;3.57;2.00;;;;;;;;;;5097618;28;20292;-66
2021/04/26 02:10:42;;;;;;;3.13;1.63;;;;;;;;;;5098108;28;20212;-66
2021/04/26 02:13:10;;;;;;;6.30;2.13;;;;;;;;;;5098525;28;20229;-66
2021/04/26 02:15:38;;;;;;;3.40;2.00;;;;;;;;;;5098658;28;20235;-66
2021/04/26 02:18:05;;;;;;;3.07;2.27;;;;;;;;;;5098580;28;20211;-65
2021/04/26 02:20:32;;;;;;;2.00;1.80;;;;;;;;;;5098397;28;20237;-66
2021/04/26 02:22:59;;;;;;;2.47;1.97;;;;;;;;;;5098135;28;20208;-66
2021/04/26 02:25:27;;;;;;;3.43;2.20;;;;;;;;;;5098558;28;20320;-65
2021/04/26 02:27:54;;;;;;;3.53;1.87;;;;;;;;;;5098286;28;20707;-65
2021/04/26 02:30:22;;;;;;;2.60;1.83;;;;;;;;;;5098782;28;20673;-66
2021/04/26 02:32:53;;;;;;;3.83;1.93;;;;;;;;;;5098005;28;20268;-66
2021/04/26 02:35:23;;;;;;;2.70;1.90;;;;;;;;;;5098578;28;20275;-64
2021/04/26 02:37:51;;;;;;;1.97;1.60;;;;;;;;;;5098744;28;20284;-65
2021/04/26 02:40:19;;;;;;;3.17;2.17;;;;;;;;;;5098978;28;20237;-65
2021/04/26 02:42:48;;;;;;;5.30;2.27;;;;;;;;;;5098182;28;20659;-66
2021/04/26 02:45:16;;;;;;;5.80;2.07;;;;;;;;;;5097956;28;20233;-66
2021/04/26 02:47:44;;;;;;;1.80;1.70;;;;;;;;;;5098237;28;20294;-64
2021/04/26 02:50:12;;;;;;;2.97;2.33;;;;;;;;;;5098126;28;20239;-66
2021/04/26 02:52:39;;;;;;;2.10;1.90;;;;;;;;;;5097753;28;20292;-65
2021/04/26 02:55:07;;;;;;;3.27;2.30;;;;;;;;;;5098007;28;20261;-65
2021/04/26 02:57:34;;;;;;;3.93;2.00;;;;;;;;;;5097877;28;20288;-65
2021/04/26 03:00:04;;;;;;;3.87;1.80;;;;;;;;;;5098088;28;20292;-66
2021/04/26 03:02:32;;;;;;;2.53;1.80;;;;;;;;;;5097854;28;20202;-66
2021/04/26 03:04:59;;;;;;;4.13;1.83;;;;;;;;;;5097948;28;20700;-66
2021/04/26 03:07:27;;;;;;;2.40;2.07;;;;;;;;;;5097808;28;20209;-65
2021/04/26 03:09:55;;;;;;;3.90;1.97;;;;;;;;;;5096884;28;20235;-65
2021/04/26 03:12:23;;;;;;;1.97;1.80;;;;;;;;;;5097811;28;20267;-66
2021/04/26 03:14:51;;;;;;;4.00;2.20;;;;;;;;;;5097577;28;20225;-64
2021/04/26 03:17:19;;;;;;;2.03;1.63;;;;;;;;;;5098131;28;20300;-66
2021/04/26 03:19:46;;;;;;;2.00;1.90;;;;;;;;;;5099670;28;20287;-65
2021/04/26 03:22:13;;;;;;;2.67;2.00;;;;;;;;;;5101775;28;20284;-66
2021/04/26 03:24:41;;;;;;;4.57;1.67;;;;;;;;;;5101611;28;20707;-66
2021/04/26 03:27:08;;;;;;;2.13;1.57;;;;;;;;;;5101872;28;20284;-66
2021/04/26 03:29:36;;;;;;;3.23;1.90;;;;;;;;;;5101542;28;20638;-65
2021/04/26 03:32:03;;;;;;;3.33;1.80;;;;;;;;;;5101537;28;20304;-64
2021/04/26 03:34:33;;;;;;;3.70;2.07;;;;;;;;;;5101352;28;20591;-65
2021/04/26 03:37:00;;;;;;;3.43;2.20;;;;;;;;;;5101187;28;20731;-64
2021/04/26 03:39:27;;;;;;;4.10;2.17;;;;;;;;;;5101672;28;20237;-65
2021/04/26 03:41:55;;;;;;;4.23;2.30;;;;;;;;;;5101285;28;20288;-65
2021/04/26 03:44:21;;;;;;;3.40;2.13;;;;;;;;;;5101424;28;20239;-65
2021/04/26 03:46:53;;;;;;;2.93;1.90;;;;;;;;;;5101210;28;20700;-65
2021/04/26 03:49:20;;;;;;;4.03;2.10;;;;;;;;;;5101242;28;20209;-66
2021/04/26 03:51:48;;;;;;;3.63;2.03;;;;;;;;;;5100962;28;20205;-66
2021/04/26 03:54:15;;;;;;;3.23;2.10;;;;;;;;;;5101341;28;20292;-66
2021/04/26 03:56:42;;;;;;;2.97;1.97;;;;;;;;;;5100959;28;20288;-66
2021/04/26 03:59:09;;;;;;;3.47;2.27;;;;;;;;;;5101297;28;20288;-65
2021/04/26 04:01:36;;;;;;;2.50;2.10;;;;;;;;;;5101185;28;20667;-64
2021/04/26 04:04:05;;;;;;;2.73;1.90;;;;;;;;;;5101130;28;20269;-64
2021/04/26 04:06:32;;;;;;;5.17;2.30;;;;;;;;;;5101018;28;20292;-65
2021/04/26 04:09:00;;;;;;;2.43;1.80;;;;;;;;;;5100858;28;20752;-65
2021/04/26 04:11:27;;;;;;;2.90;1.80;;;;;;;;;;5099828;28;20288;-65
2021/04/26 04:13:54;;;;;;;2.40;2.20;;;;;;;;;;5100928;28;20316;-65
2021/04/26 04:16:21;;;;;;;3.03;2.00;;;;;;;;;;5100846;28;20566;-65
2021/04/26 04:18:49;;;;;;;4.10;2.53;;;;;;;;;;5101004;28;20212;-66
2021/04/26 04:21:16;;;;;;;2.63;1.83;;;;;;;;;;5100791;28;20232;-65
2021/04/26 04:23:43;;;;;;;4.77;2.40;;;;;;;;;;5100426;28;20630;-65
2021/04/26 04:26:11;;;;;;;4.40;1.70;;;;;;;;;;5100541;28;20233;-63
2021/04/26 04:28:38;;;;;;;4.70;2.43;;;;;;;;;;5100721;28;20288;-66
2021/04/26 04:31:05;;;;;;;3.90;2.20;;;;;;;;;;5100225;28;20292;-65
2021/04/26 04:33:32;;;;;;;4.30;2.40;;;;;;;;;;5100648;28;20260;-65
2021/04/26 04:35:59;;;;;;;5.43;2.57;;;;;;;;;;5100406;28;20288;-65
2021/04/26 04:38:27;;;;;;;3.37;2.10;;;;;;;;;;5100278;28;20205;-64
2021/04/26 04:40:54;;;;;;;2.90;2.17;;;;;;;;;;5100437;28;20233;-65
2021/04/26 04:43:22;;;;;;;3.57;2.10;;;;;;;;;;5100137;28;20292;-66
2021/04/26 04:45:49;;;;;;;4.67;3.97;;;;;;;;;;5099772;28;20320;-66
2021/04/26 04:48:16;;;;;;;7.23;2.47;;;;;;;;;;5100199;28;20206;-66
2021/04/26 04:50:44;;;;;;;4.83;2.40;;;;;;;;;;5100335;28;20202;-66
2021/04/26 04:53:11;;;;;;;2.37;2.17;;;;;;;;;;5099846;28;20308;-66
2021/04/26 04:55:38;;;;;;;3.90;2.63;;;;;;;;;;5100116;28;20218;-66
2021/04/26 04:58:05;;;;;;;2.23;1.97;;;;;;;;;;5099775;28;20216;-66
2021/04/26 05:00:33;;;;;;;6.40;2.30;;;;;;;;;;5100087;28;20220;-65
2021/04/26 05:03:00;;;;;;;3.93;2.70;;;;;;;;;;5099927;28;20228;-64
2021/04/26 05:05:27;;;;;;;3.10;2.23;;;;;;;;;;5100232;28;20229;-65
2021/04/26 05:07:54;;;;;;;2.47;2.27;;;;;;;;;;5099996;28;20209;-66
2021/04/26 05:10:21;;;;;;;2.80;2.47;;;;;;;;;;5099531;28;20205;-66
2021/04/26 05:12:48;;;;;;;5.10;2.40;;;;;;;;;;5099401;28;20764;-64
2021/04/26 05:15:15;;;;;;;5.33;2.60;;;;;;;;;;5099724;28;20285;-65
2021/04/26 05:17:43;;;;;;;4.20;2.43;;;;;;;;;;5099596;28;20249;-65
2021/04/26 05:20:11;;;;;;;4.93;2.77;;;;;;;;;;5099400;28;20756;-64
2021/04/26 05:22:38;;;;;;;4.10;2.70;;;;;;;;;;5099440;28;20208;-64
2021/04/26 05:25:08;;;;;;;4.97;2.50;;;;;;;;;;5099280;28;20267;-64
2021/04/26 05:27:35;;;;;;;4.63;2.57;;;;;;;;;;5099400;28;20241;-66
2021/04/26 05:30:03;;;;;;;3.30;2.73;;;;;;;;;;5099348;28;20571;-66
2021/04/26 05:32:30;;;;;;;5.63;2.67;;;;;;;;;;5099538;28;20265;-65
2021/04/26 05:34:58;;;;;;;5.00;2.70;;;;;;;;;;5099466;28;20748;-66
2021/04/26 05:37:26;;;;;;;3.17;2.70;;;;;;;;;;5098781;28;20672;-65
2021/04/26 05:39:53;;;;;;;4.70;2.60;;;;;;;;;;5099052;28;20202;-66
2021/04/26 05:42:20;;;;;;;3.30;2.43;;;;;;;;;;5099163;28;20202;-65
2021/04/26 05:44:47;;;;;;;3.53;2.73;;;;;;;;;;5099374;28;20260;-65
2021/04/26 05:47:13;;;;;;;5.10;2.80;;;;;;;;;;5098675;28;20328;-66
2021/04/26 05:49:41;;;;;;;5.10;3.17;;;;;;;;;;5099263;28;20224;-66
2021/04/26 05:52:09;;;;;;;4.27;2.67;;;;;;;;;;5098617;28;20887;-64
2021/04/26 05:54:35;;;;;;;4.70;3.00;;;;;;;;;;5099085;28;20292;-65
2021/04/26 05:57:03;;;;;;;7.57;4.60;;;;;;;;;;5098514;28;20596;-66
2021/04/26 05:59:30;;;;;;;4.03;2.90;;;;;;;;;;5098690;28;20638;-67
2021/04/26 06:01:57;;;;;;;4.13;2.60;;;;;;;;;;5104027;28;20275;-66
2021/04/26 06:04:24;;;;;;;4.43;2.90;;;;;;;;;;5086671;28;22005;-65
2021/04/26 06:06:51;;;;;;;3.63;2.70;;;;;;;;;;5085241;28;20282;-65
2021/04/26 06:09:19;;;;;;;3.77;2.53;;;;;;;;;;5084742;28;20202;-65
2021/04/26 06:11:46;;;;;;;5.43;2.80;;;;;;;;;;5085359;28;20296;-66
2021/04/26 06:14:13;;;;;;;3.37;2.60;;;;;;;;;;5088483;28;20256;-66
2021/04/26 06:16:40;;;;;;;6.23;3.00;;;;;;;;;;5087924;28;20197;-65
2021/04/26 06:19:08;;;;;;;4.10;3.50;;;;;;;;;;5086747;28;20193;-64
2021/04/26 06:21:35;;;;;;;5.03;3.00;;;;;;;;;;5085744;28;20308;-64
2021/04/26 06:24:02;;;;;;;3.67;2.60;;;;;;;;;;5086142;28;20201;-65
2021/04/26 06:26:30;;;;;;;3.77;2.53;;;;;;;;;;5085797;28;20622;-65
2021/04/26 06:28:57;;;;;;;10.77;3.97;;;;;;;;;;5085414;28;20256;-65
2021/04/26 06:31:24;;;;;;;5.40;2.67;;;;;;;;;;5084176;28;20229;-64
2021/04/26 06:33:51;;;;;;;6.33;3.10;;;;;;;;;;5085672;28;20222;-65
2021/04/26 06:36:18;;;;;;;5.70;3.40;;;;;;;;;;5084275;28;20271;-64
2021/04/26 06:38:45;;;;;;;6.40;3.13;;;;;;;;;;5097965;28;20748;-65
2021/04/26 06:41:12;;;;;;;5.17;3.17;;;;;;;;;;5098143;28;20237;-65
2021/04/26 06:43:40;;;;;;;3.77;2.90;;;;;;;;;;5098227;28;20201;-64
2021/04/26 06:46:07;;;;;;;4.93;3.03;;;;;;;;;;5097652;28;20294;-65
2021/04/26 06:48:34;;;;;;;3.70;3.37;;;;;;;;;;5097931;28;20725;-64
2021/04/26 06:51:01;;;;;;;6.20;3.37;;;;;;;;;;5097977;28;20362;-64
2021/04/26 06:53:28;;;;;;;4.13;3.70;;;;;;;;;;5097642;28;20312;-64
2021/04/26 06:55:56;;;;;;;6.77;3.10;;;;;;;;;;5097887;28;20305;-63
2021/04/26 06:58:23;;;;;;;5.20;3.23;;;;;;;;;;5097912;28;20613;-64
2021/04/26 07:00:51;;;;;;;6.87;3.30;;;;;;;;;;5097903;28;20651;-65
2021/04/26 07:03:18;;;;;;;3.73;2.83;;;;;;;;;;5098025;28;20201;-65
2021/04/26 07:05:45;;;;;;;5.07;2.93;;;;;;;;;;5097651;28;20268;-65
2021/04/26 07:08:12;;;;;;;4.83;3.70;;;;;;;;;;5097395;28;20289;-63
2021/04/26 07:10:39;;;;;;;5.53;3.47;;;;;;;;;;5097556;28;20233;-63
2021/04/26 07:13:06;;;;;;;2.80;2.60;;;;;;;;;;5094055;28;20245;-65
2021/04/26 07:15:33;;;;;;;4.90;3.00;;;;;;;;;;5085178;28;20301;-62
2021/04/26 07:18:02;;;;;;;4.37;2.80;;;;;;;;;;5086507;28;20544;-64
2021/04/26 07:20:29;;;;;;;5.77;2.90;;;;;;;;;;5084997;28;20612;-67
2021/04/26 07:23:00;;;;;;;8.67;2.40;;;;;;;;;;5085170;28;20202;-65
2021/04/26 07:25:27;;;;;;;6.67;2.80;;;;;;;;;;5084717;28;20297;-65
2021/04/26 07:27:54;;;;;;;3.67;2.50;;;;;;;;;;5085811;28;20193;-66
2021/04/26 07:30:23;;;;;;;5.37;2.53;;;;;;;;;;5084680;28;20203;-66
2021/04/26 07:32:50;;;;;;;9.73;2.80;;;;;;;;;;5085198;28;20312;-66
2021/04/26 07:35:18;;;;;;;6.13;2.70;;;;;;;;;;5097779;28;20304;-64
2021/04/26 07:37:45;;;;;;;8.40;3.07;;;;;;;;;;5097457;28;20293;-64
2021/04/26 07:40:13;;;;;;;5.87;2.80;;;;;;;;;;5097813;28;20269;-66
2021/04/26 07:42:41;;;;;;;11.77;2.93;;;;;;;;;;5105581;28;20193;-66
2021/04/26 07:45:08;;;;;;;10.50;2.80;;;;;;;;;;5106342;28;20587;-66
2021/04/26 07:47:36;;;;;;;8.37;3.00;;;;;;;;;;5083225;28;20194;-66
2021/04/26 07:50:03;;;;;;;3.50;2.73;;;;;;;;;;5085360;28;20200;-66
2021/04/26 07:52:34;;;;;;;6.00;3.03;;;;;;;;;;5084913;28;20214;-66
2021/04/26 07:55:01;;;;;;;4.20;2.37;;;;;;;;;;5084868;28;20792;-66
2021/04/26 07:57:30;;;;;;;8.67;2.53;;;;;;;;;;5087621;28;20606;-66
2021/04/26 07:59:58;;;;;;;5.07;2.80;;;;;;;;;;5083865;28;20202;-66
2021/04/26 08:02:25;;;;;;;5.10;2.80;;;;;;;;;;5083644;28;20285;-66
2021/04/26 08:04:52;;;;;;;5.47;2.70;;;;;;;;;;5085628;28;20254;-66
2021/04/26 08:07:19;;;;;;;5.90;2.77;;;;;;;;;;5094926;28;20225;-65
2021/04/26 08:09:47;;;;;;;5.53;2.57;;;;;;;;;;5110133;28;20705;-64
2021/04/26 08:12:14;;;;;;;3.13;2.53;;;;;;;;;;5088850;28;20224;-66
2021/04/26 08:14:41;;;;;;;4.33;2.40;;;;;;;;;;5109205;28;20309;-66
2021/04/26 08:17:08;;;;;;;7.80;2.93;;;;;;;;;;5108997;28;20197;-66
2021/04/26 08:19:35;;;;;;;5.07;2.93;;;;;;;;;;5093853;28;20205;-65
2021/04/26 08:22:02;;;;;;;5.90;2.97;;;;;;;;;;5085021;28;20632;-66
2021/04/26 08:24:29;;;;;;;3.40;2.57;;;;;;;;;;5088027;28;20782;-66
2021/04/26 08:26:57;;;;;;;5.10;2.90;;;;;;;;;;5096047;28;20281;-66
2021/04/26 08:29:24;;;;;;;5.33;2.57;;;;;;;;;;5104845;28;20193;-66
2021/04/26 08:31:51;;;;;;;8.03;3.03;;;;;;;;;;5108830;28;20240;-66
2021/04/26 08:34:18;;;;;;;3.07;2.77;;;;;;;;;;5103127;28;20225;-65
2021/04/26 08:36:45;;;;;;;5.43;2.70;;;;;;;;;;5100290;28;20273;-66
2021/04/26 08:39:14;;;;;;;6.90;2.63;;;;;;;;;;5100201;28;20624;-65
2021/04/26 08:41:42;;;;;;;10.57;3.00;;;;;;;;;;5103608;28;20201;-66
2021/04/26 08:44:10;;;;;;;5.70;2.73;;;;;;;;;;5088119;28;20202;-66
2021/04/26 08:46:40;;;;;;;7.00;2.70;;;;;;;;;;5087668;28;20252;-65
2021/04/26 08:49:09;;;;;;;6.63;2.70;;;;;;;;;;5087128;28;20293;-66
2021/04/26 08:51:37;;;;;;;8.13;3.27;;;;;;;;;;5086484;28;20380;-66
2021/04/26 08:54:06;;;;;;;5.43;3.03;;;;;;;;;;5094538;28;20253;-66
2021/04/26 08:56:33;;;;;;;4.83;3.00;;;;;;;;;;5109616;28;20203;-66
2021/04/26 08:59:00;;;;;;;7.13;3.00;;;;;;;;;;5110104;28;20201;-65
2021/04/26 09:01:28;;;;;;;4.80;3.10;;;;;;;;;;5107418;28;20288;-65
2021/04/26 09:04:03;;;;;;;4.63;2.83;;;;;;;;;;5106626;28;20255;-65
2021/04/26 09:06:46;;;;;;;2.93;2.63;;;;;;;;;;5105099;28;20212;-65
2021/04/26 09:09:13;;;;;;;6.27;3.00;;;;;;;;;;5108993;28;20233;-65
2021/04/26 09:11:51;;;;;;;4.93;3.23;;;;;;;;;;5107713;28;20276;-64
2021/04/26 09:14:33;;;;;;;3.97;2.83;;;;;;;;;;5111865;28;20307;-65
2021/04/26 09:17:24;;;;;;;4.03;3.20;;;;;;;;;;5098031;28;20247;-64
2021/04/26 09:19:51;;;;;;;3.20;2.60;;;;;;;;;;5100174;28;20201;-65
2021/04/26 09:22:18;;;;;;;6.07;3.43;;;;;;;;;;5099624;28;20209;-65
2021/04/26 09:24:44;;;;;;;6.53;3.20;;;;;;;;;;5099320;28;20304;-66
2021/04/26 09:27:14;;;;;;;5.37;2.33;;;;;;;;;;5099282;28;20715;-66
2021/04/26 09:29:41;;;;;;;7.30;3.20;;;;;;;;;;5099312;28;20665;-65
2021/04/26 09:32:11;;;;;;;4.27;2.80;;;;;;;;;;5099191;28;20210;-65
2021/04/26 09:34:39;;;;;;;3.23;2.90;;;;;;;;;;5098969;28;20279;-66
2021/04/26 09:37:09;;;;;;;6.57;3.00;;;;;;;;;;5098909;28;20241;-66
2021/04/26 09:39:36;;;;;;;5.83;3.00;;;;;;;;;;5099351;28;20285;-66
2021/04/26 09:42:03;;;;;;;8.27;2.97;;;;;;;;;;5098945;28;20250;-66
2021/04/26 09:44:30;;;;;;;5.47;3.40;;;;;;;;;;5098958;28;20264;-65
2021/04/26 09:46:58;;;;;;;6.50;2.90;;;;;;;;;;5099130;28;20765;-66
2021/04/26 09:49:27;;;;;;;7.23;4.03;;;;;;;;;;5099217;28;20684;-65
2021/04/26 09:51:55;;;;;;;9.67;3.23;;;;;;;;;;5103914;28;20247;-66
2021/04/26 09:54:36;;;;;;;4.00;3.00;;;;;;;;;;5108376;28;20225;-67
2021/04/26 09:57:03;;;;;;;10.40;3.37;;;;;;;;;;5106590;28;20196;-66
2021/04/26 09:59:31;;;;;;;8.17;2.87;;;;;;;;;;5108187;28;20202;-67
2021/04/26 10:01:59;;;;;;;5.00;2.73;;;;;;;;;;5094024;28;20202;-67
2021/04/26 10:04:28;;;;;;;4.00;2.63;;;;;;;;;;5093914;28;20219;-65
2021/04/26 10:06:57;;;;;;;11.47;2.90;;;;;;;;;;5108763;28;20247;-66
2021/04/26 10:09:25;;;;;;;6.23;2.83;;;;;;;;;;5098751;28;20203;-67
2021/04/26 10:11:53;;;;;;;6.07;3.37;;;;;;;;;;5105720;28;20238;-66
2021/04/26 10:14:20;;;;;;;5.93;2.77;;;;;;;;;;5107675;28;20225;-66
2021/04/26 10:16:50;;;;;;;5.17;3.20;;;;;;;;;;5096817;28;20227;-68
2021/04/26 10:19:17;;;;;;;7.40;3.33;;;;;;;;;;5089565;28;20206;-67
2021/04/26 10:21:56;;;;;;;5.63;2.73;;;;;;;;;;5094801;28;20272;-66
2021/04/26 10:24:25;;;;;;;6.17;2.83;;;;;;;;;;5088291;28;20248;-66
2021/04/26 10:26:54;;;;;;;5.33;3.10;;;;;;;;;;5097821;28;20628;-69
2021/04/26 10:29:26;;;;;;;4.20;2.70;;;;;;;;;;5097344;28;20296;-67
2021/04/26 10:32:08;;;;;;;6.00;2.87;;;;;;;;;;5097894;28;20329;-67
2021/04/26 10:34:36;;;;;;;8.23;3.20;;;;;;;;;;5097864;28;20232;-67
2021/04/26 10:37:06;;;;;;;6.57;3.33;;;;;;;;;;5084638;28;20205;-67
2021/04/26 10:39:34;;;;;;;6.90;3.83;;;;;;;;;;5087847;28;20558;-66
2021/04/26 10:42:06;;;;;;;5.23;3.33;;;;;;;;;;5097610;28;20634;-67
2021/04/26 10:44:51;;;;;;;5.40;3.77;;;;;;;;;;5097646;28;20228;-67
2021/04/26 10:47:23;;;;;;;4.33;2.83;;;;;;;;;;5097605;28;20325;-66
2021/04/26 10:49:53;;;;;;;5.73;2.87;;;;;;;;;;5097883;28;20202;-69
2021/04/26 10:52:38;;;;;;;6.73;3.40;;;;;;;;;;5097347;28;20227;-66
2021/04/26 10:55:07;;;;;;;6.97;3.30;;;;;;;;;;5097575;28;20611;-65
2021/04/26 10:57:36;;;;;;;3.77;3.17;;;;;;;;;;5097762;28;20258;-66
2021/04/26 11:00:22;;;;;;;7.80;3.53;;;;;;;;;;5097893;28;20607;-66
2021/04/26 11:02:49;;;;;;;5.63;4.07;;;;;;;;;;5097525;28;20209;-66
2021/04/26 11:05:17;;;;;;;8.67;3.73;;;;;;;;;;5097754;28;20264;-66
2021/04/26 11:07:49;;;;;;;5.63;3.67;;;;;;;;;;5097069;28;20649;-66
2021/04/26 11:10:38;;;;;;;5.63;3.50;;;;;;;;;;5087377;28;20631;-66
2021/04/26 11:13:20;;;;;;;5.33;3.43;;;;;;;;;;5094154;28;20288;-66
2021/04/26 11:16:02;;;;;;;5.93;3.50;;;;;;;;;;5090679;28;20306;-66
2021/04/26 11:18:30;;;;;;;4.47;3.83;;;;;;;;;;5097535;28;20209;-64
2021/04/26 11:20:57;;;;;;;8.60;3.57;;;;;;;;;;5097192;28;20669;-65
2021/04/26 11:23:41;;;;;;;7.67;3.20;;;;;;;;;;5097449;28;20208;-65
2021/04/26 11:26:12;;;;;;;3.40;3.10;;;;;;;;;;5097623;28;20272;-65
2021/04/26 11:28:58;;;;;;;7.70;3.83;;;;;;;;;;5097487;28;20716;-66
2021/04/26 11:31:40;;;;;;;6.80;3.53;;;;;;;;;;5097323;28;20205;-65
2021/04/26 11:34:07;;;;;;;5.23;3.90;;;;;;;;;;5096990;28;20229;-66
2021/04/26 11:36:35;;;;;;;4.43;3.80;;;;;;;;;;5097179;28;20717;-65
2021/04/26 11:39:06;;;;;;;15.07;4.93;;;;;;;;;;5097380;28;20206;-65
2021/04/26 11:41:40;;;;;;;6.73;4.40;;;;;;;;;;5105985;28;20722;-65
2021/04/26 11:44:08;;;;;;;5.10;4.60;;;;;;;;;;5108976;28;20569;-65
2021/04/26 11:46:35;;;;;;;7.90;4.03;;;;;;;;;;5108358;28;20292;-65
2021/04/26 11:49:26;;;;;;;10.23;4.63;;;;;;;;;;5111295;28;20298;-65
2021/04/26 11:51:54;;;;;;;7.50;4.40;;;;;;;;;;5080726;28;20213;-67
2021/04/26 11:54:22;;;;;;;7.20;4.60;;;;;;;;;;5101049;28;20320;-67
2021/04/26 11:57:03;;;;;;;9.03;4.60;;;;;;;;;;5101075;28;20284;-68
2021/04/26 11:59:30;;;;;;;13.03;4.23;;;;;;;;;;5100810;28;20259;-68
2021/04/26 12:01:57;;;;;;;6.80;4.53;;;;;;;;;;5100845;28;20292;-69
2021/04/26 12:04:37;;;;;;;6.43;4.30;;;;;;;;;;5100520;28;20247;-69
2021/04/26 12:07:05;;;;;;;10.93;4.60;;;;;;;;;;5088392;28;20287;-68
2021/04/26 12:09:33;;;;;;;8.93;4.50;;;;;;;;;;5100774;28;20292;-69
2021/04/26 12:12:01;;;;;;;5.30;4.17;;;;;;;;;;5089834;28;20284;-69
2021/04/26 12:14:28;;;;;;;5.43;4.07;;;;;;;;;;5100305;28;20320;-69
2021/04/26 12:17:10;;;;;;;5.70;3.77;;;;;;;;;;5100640;28;20721;-69
2021/04/26 12:19:37;;;;;;;10.03;4.87;;;;;;;;;;5100259;28;20205;-69
2021/04/26 12:22:04;;;;;;;5.17;4.00;;;;;;;;;;5100050;28;20656;-69
2021/04/26 12:24:31;;;;;;;4.23;3.73;;;;;;;;;;5100006;28;20225;-69
2021/04/26 12:26:59;;;;;;;6.93;4.53;;;;;;;;;;5100443;28;20673;-69
2021/04/26 12:29:26;;;;;;;7.73;4.63;;;;;;;;;;5100252;28;20208;-69
2021/04/26 12:32:14;;;;;;;8.03;4.70;;;;;;;;;;5100311;28;20676;-69
2021/04/26 12:34:55;;;;;;;5.47;4.40;;;;;;;;;;5100287;28;20221;-69
2021/04/26 12:37:23;;;;;;;7.00;4.33;;;;;;;;;;5099733;28;20292;-69
2021/04/26 12:39:50;;;;;;;6.57;4.87;;;;;;;;;;5100381;28;20211;-69
2021/04/26 12:42:20;;;;;;;8.60;4.07;;;;;;;;;;5100213;28;20226;-69
2021/04/26 12:44:47;;;;;;;7.13;4.70;;;;;;;;;;5100492;28;20253;-69
2021/04/26 12:47:15;;;;;;;5.50;4.30;;;;;;;;;;5100847;28;20707;-69
2021/04/26 12:49:42;;;;;;;14.40;4.93;;;;;;;;;;5100732;28;20219;-69
2021/04/26 12:52:13;;;;;;;5.53;4.70;;;;;;;;;;5099037;28;20333;-69
2021/04/26 12:54:55;;;;;;;6.80;4.67;;;;;;;;;;5099580;28;20562;-69
2021/04/26 12:57:24;;;;;;;7.67;5.63;;;;;;;;;;5099342;28;20212;-69
2021/04/26 12:59:51;;;;;;;6.60;4.60;;;;;;;;;;5099978;28;20273;-69
2021/04/26 13:02:22;;;;;;;7.77;4.73;;;;;;;;;;5099677;28;20237;-69
2021/04/26 13:04:50;;;;;;;5.77;4.23;;;;;;;;;;5099559;28;20217;-68
2021/04/26 13:07:17;;;;;;;6.87;4.53;;;;;;;;;;5098924;28;20292;-68
2021/04/26 13:09:44;;;;;;;9.83;5.07;;;;;;;;;;5106258;28;20201;-67
2021/04/26 13:12:11;;;;;;;13.27;4.40;;;;;;;;;;5107863;28;20221;-69
2021/04/26 13:14:39;;;;;;;7.30;4.23;;;;;;;;;;5107981;28;20216;-67
2021/04/26 13:17:09;;;;;;;6.47;4.57;;;;;;;;;;5091418;28;20285;-69
2021/04/26 13:19:37;;;;;;;6.87;4.30;;;;;;;;;;5085598;28;20202;-69
2021/04/26 13:22:04;;;;;;;11.53;4.57;;;;;;;;;;5105624;28;20201;-68
2021/04/26 13:24:33;;;;;;;8.10;4.43;;;;;;;;;;5109850;28;20293;-69
2021/04/26 13:27:01;;;;;;;19.20;4.40;;;;;;;;;;5105830;28;20228;-71
2021/04/26 13:29:29;;;;;;;5.37;4.30;;;;;;;;;;5107292;28;20200;-69
2021/04/26 13:31:58;;;;;;;11.77;4.33;;;;;;;;;;5107487;28;20740;-70
2021/04/26 13:34:26;;;;;;;10.30;4.90;;;;;;;;;;5108389;28;20684;-68
2021/04/26 13:36:53;;;;;;;6.10;4.47;;;;;;;;;;5102845;28;20726;-68
2021/04/26 13:39:20;;;;;;;8.03;4.60;;;;;;;;;;5107165;28;20690;-68
2021/04/26 13:41:48;;;;;;;7.03;4.93;;;;;;;;;;5097881;28;20268;-68
2021/04/26 13:44:16;;;;;;;6.83;4.23;;;;;;;;;;5094591;28;20240;-68
2021/04/26 13:46:43;;;;;;;5.53;4.53;;;;;;;;;;5102000;28;20651;-67
2021/04/26 13:49:11;;;;;;;7.40;3.93;;;;;;;;;;5103504;28;20205;-68
2021/04/26 13:51:40;;;;;;;6.57;4.17;;;;;;;;;;5108800;28;20200;-68
2021/04/26 13:54:08;;;;;;;6.17;4.23;;;;;;;;;;5102934;27;20316;-68
2021/04/26 13:56:35;;;;;;;6.87;4.13;;;;;;;;;;5096582;28;20884;-68
2021/04/26 13:59:02;;;;;;;12.43;4.47;;;;;;;;;;5097104;28;20266;-68
2021/04/26 14:01:29;;;;;;;7.10;3.90;;;;;;;;;;5096817;28;20210;-68
2021/04/26 14:03:56;;;;;;;10.80;4.10;;;;;;;;;;5092891;28;20857;-68
2021/04/26 14:06:26;;;;;;;8.60;3.80;;;;;;;;;;5096825;28;20236;-68
2021/04/26 14:08:53;;;;;;;7.37;3.73;;;;;;;;;;5097047;28;20197;-69
2021/04/26 14:11:21;;;;;;;5.13;3.87;;;;;;;;;;5094323;28;20233;-69
2021/04/26 14:13:48;;;;;;;10.43;3.80;;;;;;;;;;5097777;28;20572;-69
2021/04/26 14:16:16;;;;;;;5.87;3.97;;;;;;;;;;5095925;28;20272;-69
2021/04/26 14:18:43;;;;;;;5.23;3.80;;;;;;;;;;5093221;28;20229;-69
2021/04/26 14:21:11;;;;;;;8.70;3.97;;;;;;;;;;5092042;28;20615;-69
2021/04/26 14:23:39;;;;;;;5.87;3.93;;;;;;;;;;5097685;28;20201;-68
2021/04/26 14:26:06;;;;;;;6.63;3.80;;;;;;;;;;5094467;28;20217;-70
2021/04/26 14:28:35;;;;;;;5.53;3.47;;;;;;;;;;5097429;28;20202;-68
2021/04/26 14:31:03;;;;;;;6.87;4.07;;;;;;;;;;5097766;28;20243;-70
2021/04/26 14:33:30;;;;;;;7.33;4.37;;;;;;;;;;5097865;28;20212;-69
2021/04/26 14:35:57;;;;;;;5.37;3.83;;;;;;;;;;5097948;28;20249;-70
2021/04/26 14:38:24;;;;;;;7.93;4.30;;;;;;;;;;5086807;28;20288;-70
2021/04/26 14:40:53;;;;;;;6.30;4.17;;;;;;;;;;5097109;28;20292;-70
2021/04/26 14:43:21;;;;;;;5.50;3.63;;;;;;;;;;5097058;28;20201;-70
2021/04/26 14:45:48;;;;;;;5.73;4.07;;;;;;;;;;5097084;28;20230;-70
2021/04/26 14:48:14;;;;;;;10.53;4.20;;;;;;;;;;5097663;28;20245;-70
2021/04/26 14:50:42;;;;;;;7.03;3.90;;;;;;;;;;5094788;28;20232;-70
2021/04/26 14:53:09;;;;;;;5.57;4.20;;;;;;;;;;5096922;28;20212;-70